sensor_id;sensor_type;location;lat;lon;timestamp;pressure;altitude;pressure_sealevel;temperature;humidity
18765;BME280;9511;54.242;12.448;2023-03-16T04:05:24;101861.81;;;2.17;97.60
18765;BME280;9511;54.242;12.448;2023-03-16T04:07:53;101853.22;;;2.18;97.58
18765;BME280;9511;54.242;12.448;2023-03-16T04:10:22;101860.91;;;2.17;97.78
18765;BME280;9511;54.242;12.448;2023-03-16T04:12:51;101859.78;;;2.13;98.20
18765;BME280;9511;54.242;12.448;2023-03-16T04:15:18;101863.97;;;2.11;98.42
18765;BME280;9511;54.242;12.448;2023-03-16T04:17:59;101870.09;;;2.11;98.40
18765;BME280;9511;54.242;12.448;2023-03-16T04:20:28;101866.81;;;2.14;98.85
18765;BME280;9511;54.242;12.448;2023-03-16T04:22:55;101864.13;;;2.12;98.84
18765;BME280;9511;54.242;12.448;2023-03-16T04:25:25;101876.91;;;2.09;99.22
18765;BME280;9511;54.242;12.448;2023-03-16T04:27:53;101877.34;;;2.04;99.24
18765;BME280;9511;54.242;12.448;2023-03-16T04:30:22;101888.69;;;2.04;99.24
18765;BME280;9511;54.242;12.448;2023-03-16T04:32:53;101882.09;;;1.98;99.42
18765;BME280;9511;54.242;12.448;2023-03-16T04:35:21;101886.53;;;1.99;99.64
18765;BME280;9511;54.242;12.448;2023-03-16T04:37:54;101892.59;;;1.88;99.56
18765;BME280;9511;54.242;12.448;2023-03-16T04:40:27;101905.72;;;1.77;99.73
18765;BME280;9511;54.242;12.448;2023-03-16T04:43:03;101906.66;;;1.78;99.53
18765;BME280;9511;54.242;12.448;2023-03-16T04:45:32;101905.22;;;1.71;99.94
18765;BME280;9511;54.242;12.448;2023-03-16T04:48:00;101903.19;;;1.67;100.00
18765;BME280;9511;54.242;12.448;2023-03-16T04:50:27;101901.66;;;1.59;100.00
18765;BME280;9511;54.242;12.448;2023-03-16T04:52:56;101910.97;;;1.55;100.00
18765;BME280;9511;54.242;12.448;2023-03-16T04:55:24;101908.34;;;1.55;100.00
18765;BME280;9511;54.242;12.448;2023-03-16T04:57:52;101911.22;;;1.48;100.00
18765;BME280;9511;54.242;12.448;2023-03-16T05:00:21;101913.72;;;1.47;100.00
18765;BME280;9511;54.242;12.448;2023-03-16T05:03:21;101904.19;;;1.47;100.00
18765;BME280;9511;54.242;12.448;2023-03-16T05:05:48;101904.88;;;1.45;100.00
18765;BME280;9511;54.242;12.448;2023-03-16T05:08:17;101908.06;;;1.30;100.00
18765;BME280;9511;54.242;12.448;2023-03-16T05:10:48;101909.16;;;1.22;100.00
18765;BME280;9511;54.242;12.448;2023-03-16T05:13:16;101910.38;;;1.16;100.00
18765;BME280;9511;54.242;12.448;2023-03-16T05:15:46;101913.38;;;1.10;100.00
18765;BME280;9511;54.242;12.448;2023-03-16T05:18:19;101918.50;;;0.98;100.00
18765;BME280;9511;54.242;12.448;2023-03-16T05:20:48;101926.47;;;0.90;100.00
18765;BME280;9511;54.242;12.448;2023-03-16T05:23:16;101927.28;;;0.78;100.00
18765;BME280;9511;54.242;12.448;2023-03-16T05:25:49;101927.03;;;0.65;100.00
18765;BME280;9511;54.242;12.448;2023-03-16T05:28:19;101937.06;;;0.50;100.00
18765;BME280;9511;54.242;12.448;2023-03-16T05:31:01;101922.91;;;0.37;100.00
18765;BME280;9511;54.242;12.448;2023-03-16T05:33:34;101932.03;;;0.21;100.00
18765;BME280;9511;54.242;12.448;2023-03-16T05:36:06;101941.25;;;0.08;100.00
18765;BME280;9511;54.242;12.448;2023-03-16T05:38:36;101945.41;;;-0.05;100.00
18765;BME280;9511;54.242;12.448;2023-03-16T05:41:08;101941.91;;;-0.05;100.00
18765;BME280;9511;54.242;12.448;2023-03-16T05:43:56;101947.63;;;-0.09;100.00
18765;BME280;9511;54.242;12.448;2023-03-16T05:46:27;101942.41;;;-0.09;100.00
18765;BME280;9511;54.242;12.448;2023-03-16T05:48:55;101955.91;;;-0.13;100.00
18765;BME280;9511;54.242;12.448;2023-03-16T05:51:23;101962.56;;;-0.07;100.00
18765;BME280;9511;54.242;12.448;2023-03-16T05:53:52;101975.94;;;-0.12;100.00
18765;BME280;9511;54.242;12.448;2023-03-16T05:56:29;101972.97;;;-0.07;100.00
18765;BME280;9511;54.242;12.448;2023-03-16T05:58:58;101981.41;;;-0.09;100.00
18765;BME280;9511;54.242;12.448;2023-03-16T06:01:27;101975.72;;;0.05;100.00
18765;BME280;9511;54.242;12.448;2023-03-16T06:03:54;101972.59;;;0.09;100.00
18765;BME280;9511;54.242;12.448;2023-03-16T06:06:25;101978.97;;;0.23;100.00
18765;BME280;9511;54.242;12.448;2023-03-16T06:09:05;101977.56;;;0.26;100.00
18765;BME280;9511;54.242;12.448;2023-03-16T06:11:34;101983.16;;;0.31;100.00
18765;BME280;9511;54.242;12.448;2023-03-16T06:14:01;101971.34;;;0.35;100.00
18765;BME280;9511;54.242;12.448;2023-03-16T06:16:29;101964.69;;;0.38;100.00
18765;BME280;9511;54.242;12.448;2023-03-16T06:18:56;101969.50;;;0.44;100.00
18765;BME280;9511;54.242;12.448;2023-03-16T06:21:24;101981.72;;;0.45;100.00
18765;BME280;9511;54.242;12.448;2023-03-16T06:23:54;101980.44;;;0.50;100.00
18765;BME280;9511;54.242;12.448;2023-03-16T06:26:22;101984.59;;;0.58;100.00
18765;BME280;9511;54.242;12.448;2023-03-16T06:28:51;101983.31;;;0.63;100.00
18765;BME280;9511;54.242;12.448;2023-03-16T06:31:18;101988.75;;;0.66;99.87
18765;BME280;9511;54.242;12.448;2023-03-16T06:33:46;101986.66;;;0.62;99.09
18765;BME280;9511;54.242;12.448;2023-03-16T06:36:13;101997.06;;;0.62;99.06
18765;BME280;9511;54.242;12.448;2023-03-16T06:38:45;101991.75;;;0.71;98.84
18765;BME280;9511;54.242;12.448;2023-03-16T06:41:25;101997.19;;;0.74;98.63
18765;BME280;9511;54.242;12.448;2023-03-16T06:43:54;102004.66;;;0.69;97.92
18765;BME280;9511;54.242;12.448;2023-03-16T06:46:22;102001.25;;;0.70;97.85
18765;BME280;9511;54.242;12.448;2023-03-16T06:48:49;102001.25;;;0.70;97.64
18765;BME280;9511;54.242;12.448;2023-03-16T06:51:18;102007.88;;;0.77;97.66
18765;BME280;9511;54.242;12.448;2023-03-16T06:53:46;102000.19;;;0.78;96.96
18765;BME280;9511;54.242;12.448;2023-03-16T06:56:13;101993.94;;;0.87;96.76
18765;BME280;9511;54.242;12.448;2023-03-16T06:58:44;102006.59;;;0.82;96.46
18765;BME280;9511;54.242;12.448;2023-03-16T07:01:13;102013.88;;;0.86;96.29
18765;BME280;9511;54.242;12.448;2023-03-16T07:03:40;102000.19;;;0.99;96.31
18765;BME280;9511;54.242;12.448;2023-03-16T07:06:16;102001.72;;;1.07;96.32
18765;BME280;9511;54.242;12.448;2023-03-16T07:08:43;102003.28;;;1.15;96.06
18765;BME280;9511;54.242;12.448;2023-03-16T07:11:11;102011.59;;;1.21;95.34
18765;BME280;9511;54.242;12.448;2023-03-16T07:13:40;102005.69;;;1.34;95.05
18765;BME280;9511;54.242;12.448;2023-03-16T07:16:07;102016.72;;;1.42;94.80
18765;BME280;9511;54.242;12.448;2023-03-16T07:18:36;102015.41;;;1.47;94.72
18765;BME280;9511;54.242;12.448;2023-03-16T07:21:09;102020.41;;;1.33;94.32
18765;BME280;9511;54.242;12.448;2023-03-16T07:23:37;102028.56;;;1.48;94.35
18765;BME280;9511;54.242;12.448;2023-03-16T07:26:06;102037.66;;;1.64;94.24
18765;BME280;9511;54.242;12.448;2023-03-16T07:28:36;102031.91;;;1.68;93.56
18765;BME280;9511;54.242;12.448;2023-03-16T07:31:05;102030.38;;;1.81;93.73
18765;BME280;9511;54.242;12.448;2023-03-16T07:33:39;102030.22;;;1.90;93.51
18765;BME280;9511;54.242;12.448;2023-03-16T07:36:10;102029.72;;;2.06;93.43
18765;BME280;9511;54.242;12.448;2023-03-16T07:38:43;102031.00;;;2.11;93.07
18765;BME280;9511;54.242;12.448;2023-03-16T07:41:12;102027.06;;;2.16;92.85
18765;BME280;9511;54.242;12.448;2023-03-16T07:43:40;102040.38;;;2.19;92.43
18765;BME280;9511;54.242;12.448;2023-03-16T07:46:09;102037.81;;;2.31;92.44
18765;BME280;9511;54.242;12.448;2023-03-16T07:48:40;102041.91;;;2.39;92.85
18765;BME280;9511;54.242;12.448;2023-03-16T07:51:09;102037.75;;;2.41;92.12
18765;BME280;9511;54.242;12.448;2023-03-16T07:53:37;102043.81;;;2.63;91.90
18765;BME280;9511;54.242;12.448;2023-03-16T07:56:24;102050.00;;;2.42;91.14
18765;BME280;9511;54.242;12.448;2023-03-16T07:58:55;102041.78;;;2.59;91.32
18765;BME280;9511;54.242;12.448;2023-03-16T08:01:23;102049.19;;;2.65;90.75
18765;BME280;9511;54.242;12.448;2023-03-16T08:03:51;102055.94;;;2.85;90.43
18765;BME280;9511;54.242;12.448;2023-03-16T08:06:19;102055.94;;;2.97;89.97
18765;BME280;9511;54.242;12.448;2023-03-16T08:08:47;102057.78;;;3.09;89.70
18765;BME280;9511;54.242;12.448;2023-03-16T08:11:22;102058.50;;;3.30;89.74
18765;BME280;9511;54.242;12.448;2023-03-16T08:13:55;102058.50;;;3.18;88.80
18765;BME280;9511;54.242;12.448;2023-03-16T08:16:28;102061.91;;;3.29;88.83
18765;BME280;9511;54.242;12.448;2023-03-16T08:18:58;102060.47;;;3.33;88.39
18765;BME280;9511;54.242;12.448;2023-03-16T08:21:26;102067.72;;;3.49;88.37
18765;BME280;9511;54.242;12.448;2023-03-16T08:23:55;102060.09;;;3.75;88.20
18765;BME280;9511;54.242;12.448;2023-03-16T08:26:23;102072.94;;;3.84;88.01
18765;BME280;9511;54.242;12.448;2023-03-16T08:28:55;102074.16;;;4.00;87.76
18765;BME280;9511;54.242;12.448;2023-03-16T08:31:28;102073.22;;;4.12;86.84
18765;BME280;9511;54.242;12.448;2023-03-16T08:34:05;102070.09;;;4.29;86.34
18765;BME280;9511;54.242;12.448;2023-03-16T08:36:38;102067.47;;;4.29;86.37
18765;BME280;9511;54.242;12.448;2023-03-16T08:39:05;102082.75;;;4.23;86.38
18765;BME280;9511;54.242;12.448;2023-03-16T08:41:36;102082.41;;;4.30;86.32
18765;BME280;9511;54.242;12.448;2023-03-16T08:44:08;102084.13;;;4.18;85.44
18765;BME280;9511;54.242;12.448;2023-03-16T08:46:38;102090.75;;;4.24;86.30
18765;BME280;9511;54.242;12.448;2023-03-16T08:49:07;102090.63;;;4.60;85.57
18765;BME280;9511;54.242;12.448;2023-03-16T08:51:35;102098.34;;;4.58;84.68
18765;BME280;9511;54.242;12.448;2023-03-16T08:54:02;102094.16;;;4.85;83.89
18765;BME280;9511;54.242;12.448;2023-03-16T08:56:29;102093.50;;;5.01;83.53
18765;BME280;9511;54.242;12.448;2023-03-16T08:58:57;102078.66;;;5.01;82.51
18765;BME280;9511;54.242;12.448;2023-03-16T09:01:25;102083.09;;;5.02;82.07
18765;BME280;9511;54.242;12.448;2023-03-16T09:03:54;102079.16;;;5.34;81.98
18765;BME280;9511;54.242;12.448;2023-03-16T09:06:23;102084.44;;;5.09;81.11
18765;BME280;9511;54.242;12.448;2023-03-16T09:08:50;102083.75;;;5.12;81.69
18765;BME280;9511;54.242;12.448;2023-03-16T09:11:19;102079.06;;;5.46;82.09
18765;BME280;9511;54.242;12.448;2023-03-16T09:13:47;102081.38;;;5.54;82.05
18765;BME280;9511;54.242;12.448;2023-03-16T09:16:14;102079.34;;;5.77;81.92
18765;BME280;9511;54.242;12.448;2023-03-16T09:18:42;102077.78;;;5.92;81.46
18765;BME280;9511;54.242;12.448;2023-03-16T09:21:10;102067.66;;;5.85;80.39
18765;BME280;9511;54.242;12.448;2023-03-16T09:23:40;102079.34;;;5.77;79.49
18765;BME280;9511;54.242;12.448;2023-03-16T09:26:09;102077.44;;;5.61;79.18
18765;BME280;9511;54.242;12.448;2023-03-16T09:28:38;102089.97;;;5.65;77.86
18765;BME280;9511;54.242;12.448;2023-03-16T09:31:07;102091.47;;;5.75;77.24
18765;BME280;9511;54.242;12.448;2023-03-16T09:33:34;102080.78;;;5.98;76.77
18765;BME280;9511;54.242;12.448;2023-03-16T09:36:02;102083.72;;;6.03;75.15
18765;BME280;9511;54.242;12.448;2023-03-16T09:38:29;102086.00;;;6.11;74.69
18765;BME280;9511;54.242;12.448;2023-03-16T09:41:02;102083.38;;;6.11;74.37
18765;BME280;9511;54.242;12.448;2023-03-16T09:43:47;102084.38;;;6.27;74.14
18765;BME280;9511;54.242;12.448;2023-03-16T09:46:23;102075.66;;;6.28;72.88
18765;BME280;9511;54.242;12.448;2023-03-16T09:48:53;102084.03;;;6.35;72.73
18765;BME280;9511;54.242;12.448;2023-03-16T09:51:34;102090.44;;;6.26;72.02
18765;BME280;9511;54.242;12.448;2023-03-16T09:54:07;102078.09;;;6.66;73.00
18765;BME280;9511;54.242;12.448;2023-03-16T09:56:42;102076.97;;;6.62;71.44
18765;BME280;9511;54.242;12.448;2023-03-16T09:59:13;102079.66;;;6.49;71.16
18765;BME280;9511;54.242;12.448;2023-03-16T10:01:51;102083.31;;;6.94;73.27
18765;BME280;9511;54.242;12.448;2023-03-16T10:04:33;102080.28;;;6.88;73.93
18765;BME280;9511;54.242;12.448;2023-03-16T10:07:12;102084.09;;;6.78;72.03
18765;BME280;9511;54.242;12.448;2023-03-16T10:09:47;102089.66;;;6.98;70.47
18765;BME280;9511;54.242;12.448;2023-03-16T10:12:20;102083.34;;;7.24;70.37
18765;BME280;9511;54.242;12.448;2023-03-16T10:14:53;102088.78;;;7.27;70.62
18765;BME280;9511;54.242;12.448;2023-03-16T10:17:25;102091.50;;;7.43;70.82
18765;BME280;9511;54.242;12.448;2023-03-16T10:19:56;102070.03;;;7.66;70.06
18765;BME280;9511;54.242;12.448;2023-03-16T10:22:29;102075.59;;;7.56;69.56
18765;BME280;9511;54.242;12.448;2023-03-16T10:25:02;102073.31;;;7.62;68.47
18765;BME280;9511;54.242;12.448;2023-03-16T10:27:36;102070.25;;;7.69;69.06
18765;BME280;9511;54.242;12.448;2023-03-16T10:30:16;102067.13;;;8.08;67.84
18765;BME280;9511;54.242;12.448;2023-03-16T10:32:45;102067.34;;;7.96;67.12
18765;BME280;9511;54.242;12.448;2023-03-16T10:35:21;102069.28;;;7.84;66.60
18765;BME280;9511;54.242;12.448;2023-03-16T10:37:53;102066.63;;;7.98;66.65
18765;BME280;9511;54.242;12.448;2023-03-16T10:40:21;102059.09;;;7.90;66.68
18765;BME280;9511;54.242;12.448;2023-03-16T10:42:50;102062.94;;;8.11;64.70
18765;BME280;9511;54.242;12.448;2023-03-16T10:45:28;102063.81;;;8.27;64.42
18765;BME280;9511;54.242;12.448;2023-03-16T10:48:05;102056.44;;;8.52;64.51
18765;BME280;9511;54.242;12.448;2023-03-16T10:50:32;102049.16;;;8.81;64.73
18765;BME280;9511;54.242;12.448;2023-03-16T10:53:00;102052.94;;;8.37;62.78
18765;BME280;9511;54.242;12.448;2023-03-16T10:55:30;102045.56;;;8.46;63.12
18765;BME280;9511;54.242;12.448;2023-03-16T10:58:01;102048.13;;;8.30;62.80
18765;BME280;9511;54.242;12.448;2023-03-16T11:00:33;102049.50;;;8.70;63.65
18765;BME280;9511;54.242;12.448;2023-03-16T11:03:17;102037.00;;;8.50;62.43
18765;BME280;9511;54.242;12.448;2023-03-16T11:05:55;102035.47;;;8.88;63.33
18765;BME280;9511;54.242;12.448;2023-03-16T11:08:25;102032.09;;;8.90;61.79
18765;BME280;9511;54.242;12.448;2023-03-16T11:10:55;102026.09;;;9.11;61.56
18765;BME280;9511;54.242;12.448;2023-03-16T11:13:31;102028.25;;;9.18;61.58
18765;BME280;9511;54.242;12.448;2023-03-16T11:16:02;102034.22;;;9.31;60.13
18765;BME280;9511;54.242;12.448;2023-03-16T11:18:36;102028.88;;;9.30;59.16
18765;BME280;9511;54.242;12.448;2023-03-16T11:21:07;102031.53;;;9.14;58.75
18765;BME280;9511;54.242;12.448;2023-03-16T11:23:42;102027.56;;;9.40;61.17
18765;BME280;9511;54.242;12.448;2023-03-16T11:26:18;102018.91;;;9.60;60.08
18765;BME280;9511;54.242;12.448;2023-03-16T11:28:51;102027.19;;;9.85;59.69
18765;BME280;9511;54.242;12.448;2023-03-16T11:31:38;102018.91;;;9.24;58.50
18765;BME280;9511;54.242;12.448;2023-03-16T11:34:13;102023.59;;;9.48;58.26
18765;BME280;9511;54.242;12.448;2023-03-16T11:36:47;102018.75;;;9.93;58.16
18765;BME280;9511;54.242;12.448;2023-03-16T11:39:26;102016.63;;;9.68;55.82
18765;BME280;9511;54.242;12.448;2023-03-16T11:42:03;102013.75;;;9.63;56.91
18765;BME280;9511;54.242;12.448;2023-03-16T11:44:42;102013.94;;;9.66;57.22
18765;BME280;9511;54.242;12.448;2023-03-16T11:47:27;102008.56;;;9.65;56.74
18765;BME280;9511;54.242;12.448;2023-03-16T11:50:00;102010.41;;;9.85;56.86
18765;BME280;9511;54.242;12.448;2023-03-16T11:52:41;102005.47;;;9.55;54.66
18765;BME280;9511;54.242;12.448;2023-03-16T11:55:21;102003.06;;;9.42;54.96
18765;BME280;9511;54.242;12.448;2023-03-16T11:58:00;102011.81;;;9.23;55.77
18765;BME280;9511;54.242;12.448;2023-03-16T12:00:36;101999.28;;;9.55;54.47
18765;BME280;9511;54.242;12.448;2023-03-16T12:06:22;101989.50;;;9.90;54.31
18765;BME280;9511;54.242;12.448;2023-03-16T12:09:09;101980.63;;;10.44;54.94
18765;BME280;9511;54.242;12.448;2023-03-16T12:11:45;101981.66;;;10.67;54.51
18765;BME280;9511;54.242;12.448;2023-03-16T12:14:22;101969.97;;;10.62;54.40
18765;BME280;9511;54.242;12.448;2023-03-16T12:16:54;101968.31;;;10.45;53.52
18765;BME280;9511;54.242;12.448;2023-03-16T12:19:30;101974.69;;;10.69;52.83
18765;BME280;9511;54.242;12.448;2023-03-16T12:22:06;101970.31;;;10.90;52.66
18765;BME280;9511;54.242;12.448;2023-03-16T12:24:40;101954.81;;;10.79;50.88
18765;BME280;9511;54.242;12.448;2023-03-16T12:27:13;101949.75;;;10.64;49.84
18765;BME280;9511;54.242;12.448;2023-03-16T12:29:51;101943.22;;;10.36;50.42
18765;BME280;9511;54.242;12.448;2023-03-16T12:32:32;101950.41;;;10.39;51.72
18765;BME280;9511;54.242;12.448;2023-03-16T12:35:12;101948.78;;;10.43;51.73
18765;BME280;9511;54.242;12.448;2023-03-16T12:37:46;101942.22;;;10.33;51.48
18765;BME280;9511;54.242;12.448;2023-03-16T12:40:26;101947.69;;;10.57;52.41
18765;BME280;9511;54.242;12.448;2023-03-16T12:43:11;101944.13;;;10.37;52.82
18765;BME280;9511;54.242;12.448;2023-03-16T12:45:46;101945.84;;;9.98;53.03
18765;BME280;9511;54.242;12.448;2023-03-16T12:48:24;101939.91;;;10.41;53.27
18765;BME280;9511;54.242;12.448;2023-03-16T12:50:55;101931.81;;;10.57;52.18
18765;BME280;9511;54.242;12.448;2023-03-16T12:53:28;101936.59;;;11.28;51.22
18765;BME280;9511;54.242;12.448;2023-03-16T12:56:06;101931.09;;;10.82;50.78
18765;BME280;9511;54.242;12.448;2023-03-16T12:58:35;101924.59;;;10.74;52.60
18765;BME280;9511;54.242;12.448;2023-03-16T13:01:08;101932.06;;;10.63;52.55
18765;BME280;9511;54.242;12.448;2023-03-16T13:03:40;101919.09;;;10.29;52.12
18765;BME280;9511;54.242;12.448;2023-03-16T13:06:16;101924.28;;;10.47;51.74
18765;BME280;9511;54.242;12.448;2023-03-16T13:08:47;101908.78;;;10.35;52.50
18765;BME280;9511;54.242;12.448;2023-03-16T13:11:16;101923.81;;;10.76;52.97
18765;BME280;9511;54.242;12.448;2023-03-16T13:13:48;101922.16;;;10.78;51.74
18765;BME280;9511;54.242;12.448;2023-03-16T13:16:25;101928.91;;;10.51;51.47
18765;BME280;9511;54.242;12.448;2023-03-16T13:18:55;101926.41;;;10.34;52.45
18765;BME280;9511;54.242;12.448;2023-03-16T13:21:34;101926.06;;;10.27;51.40
18765;BME280;9511;54.242;12.448;2023-03-16T13:24:20;101919.00;;;10.47;51.38
18765;BME280;9511;54.242;12.448;2023-03-16T13:26:53;101920.25;;;10.16;51.25
18765;BME280;9511;54.242;12.448;2023-03-16T13:29:24;101923.13;;;10.40;52.22
18765;BME280;9511;54.242;12.448;2023-03-16T13:31:53;101926.88;;;10.45;51.79
18765;BME280;9511;54.242;12.448;2023-03-16T13:34:26;101919.25;;;9.75;51.75
18765;BME280;9511;54.242;12.448;2023-03-16T13:36:56;101912.56;;;9.83;50.36
18765;BME280;9511;54.242;12.448;2023-03-16T13:39:25;101911.63;;;10.01;50.78
18765;BME280;9511;54.242;12.448;2023-03-16T13:41:55;101914.34;;;10.41;51.04
18765;BME280;9511;54.242;12.448;2023-03-16T13:44:25;101908.69;;;10.14;50.04
18765;BME280;9511;54.242;12.448;2023-03-16T13:46:54;101899.78;;;10.51;51.35
18765;BME280;9511;54.242;12.448;2023-03-16T13:49:22;101904.91;;;10.88;50.63
18765;BME280;9511;54.242;12.448;2023-03-16T13:51:50;101898.78;;;10.68;48.55
18765;BME280;9511;54.242;12.448;2023-03-16T13:54:21;101900.56;;;10.69;48.41
18765;BME280;9511;54.242;12.448;2023-03-16T13:56:50;101891.00;;;10.94;49.66
18765;BME280;9511;54.242;12.448;2023-03-16T13:59:18;101885.72;;;10.94;48.19
18765;BME280;9511;54.242;12.448;2023-03-16T14:01:47;101886.69;;;11.39;46.52
18765;BME280;9511;54.242;12.448;2023-03-16T14:04:15;101882.78;;;11.52;47.21
18765;BME280;9511;54.242;12.448;2023-03-16T14:06:54;101874.72;;;11.93;47.48
18765;BME280;9511;54.242;12.448;2023-03-16T14:09:24;101867.69;;;11.73;44.69
18765;BME280;9511;54.242;12.448;2023-03-16T14:11:54;101857.09;;;11.73;44.10
18765;BME280;9511;54.242;12.448;2023-03-16T14:14:25;101857.59;;;11.85;44.63
18765;BME280;9511;54.242;12.448;2023-03-16T14:16:59;101835.81;;;11.48;44.78
18765;BME280;9511;54.242;12.448;2023-03-16T14:19:27;101845.91;;;11.35;43.65
18765;BME280;9511;54.242;12.448;2023-03-16T14:22:02;101835.22;;;12.01;42.50
18765;BME280;9511;54.242;12.448;2023-03-16T14:24:33;101829.94;;;12.03;42.41
18765;BME280;9511;54.242;12.448;2023-03-16T14:27:14;101836.38;;;12.33;41.72
18765;BME280;9511;54.242;12.448;2023-03-16T14:29:45;101837.50;;;11.92;41.05
18765;BME280;9511;54.242;12.448;2023-03-16T14:32:21;101846.22;;;12.12;40.22
18765;BME280;9511;54.242;12.448;2023-03-16T14:34:59;101839.41;;;12.20;38.82
18765;BME280;9511;54.242;12.448;2023-03-16T14:37:36;101839.03;;;12.33;39.56
18765;BME280;9511;54.242;12.448;2023-03-16T14:40:06;101841.19;;;11.95;39.15
18765;BME280;9511;54.242;12.448;2023-03-16T14:42:34;101836.34;;;11.61;40.97
18765;BME280;9511;54.242;12.448;2023-03-16T14:45:08;101823.81;;;11.57;41.21
18765;BME280;9511;54.242;12.448;2023-03-16T14:47:40;101824.66;;;11.80;41.37
18765;BME280;9511;54.242;12.448;2023-03-16T14:50:13;101826.13;;;11.94;39.51
18765;BME280;9511;54.242;12.448;2023-03-16T14:52:44;101817.59;;;11.57;40.11
18765;BME280;9511;54.242;12.448;2023-03-16T14:55:15;101809.69;;;11.34;41.52
18765;BME280;9511;54.242;12.448;2023-03-16T14:57:45;101810.53;;;12.04;41.80
18765;BME280;9511;54.242;12.448;2023-03-16T15:00:17;101805.66;;;11.44;40.69
18765;BME280;9511;54.242;12.448;2023-03-16T15:02:53;101795.94;;;11.44;40.17
18765;BME280;9511;54.242;12.448;2023-03-16T15:05:26;101789.81;;;11.23;39.48
18765;BME280;9511;54.242;12.448;2023-03-16T15:07:57;101796.81;;;11.67;38.48
18765;BME280;9511;54.242;12.448;2023-03-16T15:10:26;101793.88;;;11.82;38.30
18765;BME280;9511;54.242;12.448;2023-03-16T15:12:54;101800.59;;;12.22;38.82
18765;BME280;9511;54.242;12.448;2023-03-16T15:15:30;101797.28;;;12.04;38.98
18765;BME280;9511;54.242;12.448;2023-03-16T15:17:57;101803.19;;;12.46;38.84
18765;BME280;9511;54.242;12.448;2023-03-16T15:20:28;101795.59;;;12.06;39.00
18765;BME280;9511;54.242;12.448;2023-03-16T15:22:59;101792.75;;;11.77;37.75
18765;BME280;9511;54.242;12.448;2023-03-16T15:25:31;101792.09;;;12.07;38.13
18765;BME280;9511;54.242;12.448;2023-03-16T15:28:09;101790.28;;;12.31;38.54
18765;BME280;9511;54.242;12.448;2023-03-16T15:30:37;101779.38;;;11.98;36.86
18765;BME280;9511;54.242;12.448;2023-03-16T15:33:07;101780.81;;;11.64;37.22
18765;BME280;9511;54.242;12.448;2023-03-16T15:35:35;101782.59;;;11.41;37.26
18765;BME280;9511;54.242;12.448;2023-03-16T15:38:06;101764.84;;;11.63;37.68
18765;BME280;9511;54.242;12.448;2023-03-16T15:40:38;101770.91;;;12.08;37.17
18765;BME280;9511;54.242;12.448;2023-03-16T15:43:09;101774.06;;;11.50;38.83
18765;BME280;9511;54.242;12.448;2023-03-16T15:45:37;101770.63;;;10.41;40.12
18765;BME280;9511;54.242;12.448;2023-03-16T15:48:05;101765.22;;;9.78;42.50
18765;BME280;9511;54.242;12.448;2023-03-16T15:50:32;101765.28;;;9.21;44.02
18765;BME280;9511;54.242;12.448;2023-03-16T15:53:02;101760.41;;;8.74;46.31
18765;BME280;9511;54.242;12.448;2023-03-16T15:55:35;101747.47;;;8.61;48.09
18765;BME280;9511;54.242;12.448;2023-03-16T15:58:04;101758.31;;;8.49;48.33
18765;BME280;9511;54.242;12.448;2023-03-16T16:00:34;101758.81;;;8.42;49.60
18765;BME280;9511;54.242;12.448;2023-03-16T16:03:04;101745.31;;;8.89;49.07
18765;BME280;9511;54.242;12.448;2023-03-16T16:05:32;101751.47;;;9.08;48.44
18765;BME280;9511;54.242;12.448;2023-03-16T16:07:59;101753.88;;;9.80;48.19
18765;BME280;9511;54.242;12.448;2023-03-16T16:10:27;101742.84;;;10.10;47.33
18765;BME280;9511;54.242;12.448;2023-03-16T16:12:55;101749.94;;;10.11;47.67
18765;BME280;9511;54.242;12.448;2023-03-16T16:15:25;101744.59;;;9.30;49.35
18765;BME280;9511;54.242;12.448;2023-03-16T16:17:54;101739.09;;;8.89;51.09
18765;BME280;9511;54.242;12.448;2023-03-16T16:20:24;101746.78;;;8.31;51.70
18765;BME280;9511;54.242;12.448;2023-03-16T16:22:53;101739.00;;;7.98;52.61
18765;BME280;9511;54.242;12.448;2023-03-16T16:25:26;101743.09;;;7.75;53.08
18765;BME280;9511;54.242;12.448;2023-03-16T16:27:56;101743.69;;;7.53;52.83
18765;BME280;9511;54.242;12.448;2023-03-16T16:30:25;101741.69;;;7.33;53.50
18765;BME280;9511;54.242;12.448;2023-03-16T16:32:53;101738.56;;;7.07;54.10
18765;BME280;9511;54.242;12.448;2023-03-16T16:35:23;101748.91;;;7.04;53.49
18765;BME280;9511;54.242;12.448;2023-03-16T16:37:51;101736.22;;;6.81;54.21
18765;BME280;9511;54.242;12.448;2023-03-16T16:40:20;101731.25;;;6.71;54.13
18765;BME280;9511;54.242;12.448;2023-03-16T16:42:51;101732.22;;;6.56;54.76
18765;BME280;9511;54.242;12.448;2023-03-16T16:45:22;101743.09;;;6.48;55.08
18765;BME280;9511;54.242;12.448;2023-03-16T16:47:51;101737.34;;;6.38;55.41
18765;BME280;9511;54.242;12.448;2023-03-16T16:50:22;101749.47;;;6.36;55.33
18765;BME280;9511;54.242;12.448;2023-03-16T16:52:51;101740.78;;;6.23;55.52
18765;BME280;9511;54.242;12.448;2023-03-16T16:55:21;101748.75;;;6.24;56.48
18765;BME280;9511;54.242;12.448;2023-03-16T16:57:51;101752.03;;;6.20;57.02
18765;BME280;9511;54.242;12.448;2023-03-16T17:00:22;101752.31;;;6.10;57.50
18765;BME280;9511;54.242;12.448;2023-03-16T17:02:51;101743.34;;;6.06;58.45
18765;BME280;9511;54.242;12.448;2023-03-16T17:05:21;101750.03;;;6.01;58.58
18765;BME280;9511;54.242;12.448;2023-03-16T17:07:49;101746.22;;;5.96;59.26
18765;BME280;9511;54.242;12.448;2023-03-16T17:10:19;101738.09;;;5.92;59.72
18765;BME280;9511;54.242;12.448;2023-03-16T17:12:47;101727.91;;;5.83;60.21
18765;BME280;9511;54.242;12.448;2023-03-16T17:15:25;101732.34;;;5.84;60.59
18765;BME280;9511;54.242;12.448;2023-03-16T17:17:58;101734.44;;;5.75;60.92
18765;BME280;9511;54.242;12.448;2023-03-16T17:20:28;101731.97;;;5.78;61.30
18765;BME280;9511;54.242;12.448;2023-03-16T17:22:57;101731.16;;;5.79;61.69
18765;BME280;9511;54.242;12.448;2023-03-16T17:25:25;101732.44;;;5.71;61.30